Taneyville, Missouri
Current Conditions -  °F | °C
As of 3:45 PM on Monday 20 Oct 2014 (Local Time) from KBBG Reporting Station
Broken Clouds Broken Clouds  
Wind Chill: 73°   Ceiling: 6000
Heat Index: 73°   Visibility: 10mi
Dew Point: 57°   Wind: 5mph
Humidity: 57%   Direction: 230°SW
Pressure: 30.04"   Gusts: NA
Location:  36.74°N, 93.03°W
Report Text: KBBG 202045Z 23004KT 10SM BKN060 23/14 A3004
Loading
Personal Weather Stations






























Interactive Weather Map New forecast layout! Learn more

10-Day Weather Forecast

Advertisements
Track Severe Weather on mobile